Bass River, Massachusetts
Current Conditions -  °F | °C
As of 12:56 PM on Thursday 30 Oct 2014 (Local Time) from KHYA Reporting Station
Clear Clear  
Wind Chill: 14°   Ceiling: Unl
Heat Index: 14°   Visibility: 10mi
Dew Point:   Wind: 9mph
Humidity: 53%   Direction: 30°NNE
Pressure: 29.91"   Gusts: NA
Location:  41.6739°N, 70.1961°W
Report Text: KHYA 301656Z 03008KT 10SM CLR 14/05 A2991 RMK AO2 SLP128 T01440050
Loading
Personal Weather Stations






























Interactive Weather Map
Tropical Storm Tracking
New forecast layout! Learn more

10-Day Weather Forecast

Advertisements
Track Severe Weather on mobile